Air Park, Nebraska
Current Conditions -  °F | °C
As of 9:54 AM on Saturday 25 Oct 2014 (Local Time) from KLNK Reporting Station
Clear Clear  
Wind Chill: 56°   Ceiling: Unl
Heat Index: 56°   Visibility: 10mi
Dew Point: 49°   Wind: 5mph
Humidity: 77%   Direction: 360°N
Pressure: 30.13"   Gusts: NA
Location:  40.8731°N, 96.8015°W
Report Text: KLNK 251454Z 36004KT 10SM CLR 13/09 A3013 RMK AO2 SLP201 T01330094 51017
Loading
Personal Weather Stations






























Interactive Weather Map
Tropical Storm Tracking
New forecast layout! Learn more

10-Day Weather Forecast

Advertisements
Track Severe Weather on mobile